createdAt,value
2023-01-03T00:00:24.881Z,18.40
2023-01-03T00:01:24.786Z,15.00
2023-01-03T00:02:24.950Z,18.50
2023-01-03T00:03:24.747Z,16.60
2023-01-03T00:04:24.946Z,16.30
2023-01-03T00:05:24.707Z,16.70
2023-01-03T00:06:24.767Z,16.10
2023-01-03T00:07:24.706Z,16.30
2023-01-03T00:08:24.805Z,18.40
2023-01-03T00:09:24.668Z,15.40
2023-01-03T00:10:24.739Z,17.90
2023-01-03T00:11:24.637Z,16.70
2023-01-03T00:12:30.783Z,15.90
2023-01-03T00:13:24.626Z,16.60
2023-01-03T00:14:24.704Z,14.80
2023-01-03T00:15:24.584Z,16.40
2023-01-03T00:16:24.662Z,16.50
2023-01-03T00:17:24.584Z,14.60
2023-01-03T00:18:24.675Z,15.10
2023-01-03T00:19:24.544Z,13.70
2023-01-03T00:20:24.625Z,15.00
2023-01-03T00:21:24.495Z,15.90
2023-01-03T00:22:24.650Z,14.70
2023-01-03T00:23:24.475Z,16.10
2023-01-03T00:24:25.603Z,15.40
2023-01-03T00:25:24.479Z,16.10
2023-01-03T00:26:24.515Z,16.00
2023-01-03T00:27:24.425Z,16.80
2023-01-03T00:28:24.553Z,18.00
2023-01-03T00:29:24.418Z,16.70
2023-01-03T00:30:24.493Z,16.10
2023-01-03T00:31:24.455Z,17.30
2023-01-03T00:32:24.523Z,15.90
2023-01-03T00:33:24.343Z,16.50
2023-01-03T00:34:24.356Z,18.70
2023-01-03T00:35:24.329Z,16.80
2023-01-03T00:36:24.389Z,15.40
2023-01-03T00:37:24.303Z,15.00
2023-01-03T00:38:24.435Z,16.10
2023-01-03T00:39:24.263Z,15.80
2023-01-03T00:40:24.364Z,15.00
2023-01-03T00:41:24.231Z,18.00
2023-01-03T00:42:24.402Z,14.70
2023-01-03T00:43:24.229Z,17.90
2023-01-03T00:44:24.233Z,15.00
2023-01-03T00:45:25.732Z,15.00
2023-01-03T00:46:24.377Z,16.70
2023-01-03T00:47:24.175Z,16.90
2023-01-03T00:48:24.302Z,15.10
2023-01-03T00:49:24.151Z,16.00
2023-01-03T00:50:24.240Z,15.50
2023-01-03T00:51:24.121Z,14.40
2023-01-03T00:52:25.322Z,14.70
2023-01-03T00:53:24.093Z,17.70
2023-01-03T00:54:24.112Z,15.50
2023-01-03T00:55:24.073Z,16.80
2023-01-03T00:56:24.143Z,16.00
2023-01-03T00:57:24.020Z,16.30
2023-01-03T00:58:25.111Z,16.20
2023-01-03T00:59:23.991Z,15.90
2023-01-03T01:00:24.110Z,16.30
2023-01-03T01:01:24.126Z,17.50
2023-01-03T01:02:24.224Z,18.40
2023-01-03T01:03:24.234Z,15.60
2023-01-03T01:04:24.002Z,16.20
2023-01-03T01:05:23.924Z,16.50
2023-01-03T01:06:24.030Z,15.00
2023-01-03T01:07:23.909Z,17.50
2023-01-03T01:08:24.069Z,16.60
2023-01-03T01:09:23.875Z,18.30
2023-01-03T01:10:23.992Z,20.30
2023-01-03T01:11:23.841Z,17.40
2023-01-03T01:12:23.922Z,16.40
2023-01-03T01:13:23.838Z,18.70
2023-01-03T01:14:23.879Z,16.00
2023-01-03T01:15:23.788Z,18.30
2023-01-03T01:16:23.971Z,15.40
2023-01-03T01:17:23.757Z,18.80
2023-01-03T01:18:23.937Z,18.60
2023-01-03T01:19:23.766Z,17.60
2023-01-03T01:20:23.767Z,17.40
2023-01-03T01:21:23.709Z,18.80
2023-01-03T01:22:23.799Z,17.90
2023-01-03T01:23:23.677Z,17.00
2023-01-03T01:24:23.743Z,18.60
2023-01-03T01:25:23.693Z,18.30
2023-01-03T01:26:44.750Z,16.80
2023-01-03T01:27:23.629Z,18.90
2023-01-03T01:28:23.808Z,17.20
2023-01-03T01:29:23.602Z,17.50
2023-01-03T01:30:26.289Z,16.20
2023-01-03T01:31:23.619Z,18.70
2023-01-03T01:32:23.701Z,19.00
2023-01-03T01:33:23.549Z,22.00
2023-01-03T01:34:23.609Z,17.00
2023-01-03T01:35:23.538Z,18.50
2023-01-03T01:36:23.683Z,17.90
2023-01-03T01:37:23.568Z,18.60
2023-01-03T01:38:23.697Z,18.20
2023-01-03T01:39:23.467Z,18.60
2023-01-03T01:40:23.516Z,22.80
2023-01-03T01:41:23.459Z,20.90
2023-01-03T01:42:28.667Z,20.30
2023-01-03T01:43:24.451Z,15.70
2023-01-03T01:44:23.489Z,22.00
2023-01-03T01:45:23.386Z,22.40
2023-01-03T01:46:23.591Z,21.30
2023-01-03T01:47:23.377Z,20.90
2023-01-03T01:48:44.496Z,19.70
2023-01-03T01:49:23.345Z,20.10
2023-01-03T01:50:23.395Z,17.70
2023-01-03T01:51:23.315Z,17.50
2023-01-03T01:52:23.433Z,19.10
2023-01-03T01:53:23.336Z,19.30
2023-01-03T01:54:26.595Z,18.60
2023-01-03T01:55:23.263Z,19.90
2023-01-03T01:56:23.406Z,20.20
2023-01-03T01:57:23.257Z,18.70
2023-01-03T01:58:23.335Z,20.30
2023-01-03T01:59:23.211Z,18.80
2023-01-03T02:00:23.325Z,20.90
2023-01-03T02:01:23.262Z,22.20
2023-01-03T02:02:23.475Z,20.70
2023-01-03T02:03:23.191Z,17.90
2023-01-03T02:04:23.351Z,21.30
2023-01-03T02:05:23.143Z,19.40
2023-01-03T02:06:24.363Z,18.90
2023-01-03T02:07:23.109Z,18.20
2023-01-03T02:08:23.187Z,18.90
2023-01-03T02:09:23.086Z,19.10
2023-01-03T02:10:23.103Z,19.10
2023-01-03T02:11:23.062Z,21.20
2023-01-03T02:12:26.436Z,17.80
2023-01-03T02:13:23.036Z,20.90
2023-01-03T02:14:23.121Z,18.40
2023-01-03T02:15:23.014Z,17.80
2023-01-03T02:16:23.085Z,17.90
2023-01-03T02:17:22.989Z,19.60
2023-01-03T02:18:23.143Z,19.20
2023-01-03T02:19:22.954Z,18.90
2023-01-03T02:20:23.026Z,18.30
2023-01-03T02:21:22.935Z,16.10
2023-01-03T02:22:23.063Z,19.50
2023-01-03T02:23:22.895Z,17.10
2023-01-03T02:24:23.049Z,16.10
2023-01-03T02:25:22.888Z,14.30
2023-01-03T02:26:22.931Z,17.20
2023-01-03T02:27:22.843Z,18.70
2023-01-03T02:28:22.965Z,15.90
2023-01-03T02:29:22.823Z,16.20
2023-01-03T02:30:23.972Z,17.20
2023-01-03T02:31:22.846Z,18.00
2023-01-03T02:32:22.934Z,16.30
2023-01-03T02:33:22.770Z,17.80
2023-01-03T02:34:22.875Z,18.10
2023-01-03T02:35:22.734Z,17.70
2023-01-03T02:36:22.858Z,16.00
2023-01-03T02:37:22.715Z,17.40
2023-01-03T02:38:22.844Z,18.40
2023-01-03T02:39:23.921Z,17.30
2023-01-03T02:40:22.782Z,18.80
2023-01-03T02:41:22.663Z,17.90
2023-01-03T02:42:23.889Z,16.00
2023-01-03T02:43:22.639Z,18.10
2023-01-03T02:44:22.753Z,19.30
2023-01-03T02:45:22.609Z,19.50
2023-01-03T02:46:22.731Z,17.30
2023-01-03T02:47:22.585Z,18.80
2023-01-03T02:48:23.641Z,19.00
2023-01-03T02:49:22.564Z,17.30
2023-01-03T02:50:22.650Z,19.80
2023-01-03T02:51:22.534Z,18.10
2023-01-03T02:52:22.692Z,20.00
2023-01-03T02:53:22.502Z,17.70
2023-01-03T02:54:22.594Z,18.90
2023-01-03T02:55:22.486Z,19.70
2023-01-03T02:56:22.562Z,19.80
2023-01-03T02:57:22.451Z,22.60
2023-01-03T02:58:22.599Z,22.90
2023-01-03T02:59:22.421Z,24.30
2023-01-03T03:00:26.780Z,24.90
2023-01-03T03:01:22.485Z,24.10
2023-01-03T03:02:22.564Z,17.40
2023-01-03T03:03:22.418Z,22.30
2023-01-03T03:04:22.503Z,22.30
2023-01-03T03:05:22.341Z,20.60
2023-01-03T03:06:24.431Z,21.90
2023-01-03T03:07:22.313Z,18.30
2023-01-03T03:08:22.474Z,23.70
2023-01-03T03:09:22.288Z,19.00
2023-01-03T03:10:22.419Z,24.00
2023-01-03T03:11:22.260Z,19.30
2023-01-03T03:12:22.400Z,20.20
2023-01-03T03:13:22.244Z,19.10
2023-01-03T03:14:22.407Z,21.20
2023-01-03T03:15:22.212Z,24.60
2023-01-03T03:16:22.497Z,19.20
2023-01-03T03:17:22.189Z,19.30
2023-01-03T03:18:22.398Z,25.00
2023-01-03T03:19:22.162Z,20.80
2023-01-03T03:20:22.281Z,19.40
2023-01-03T03:21:22.132Z,19.90
2023-01-03T03:22:22.191Z,22.00
2023-01-03T03:23:22.114Z,22.70
2023-01-03T03:24:22.204Z,22.70
2023-01-03T03:25:22.079Z,19.40
2023-01-03T03:26:22.207Z,21.40
2023-01-03T03:27:22.056Z,19.90
2023-01-03T03:28:22.228Z,23.50
2023-01-03T03:29:22.029Z,22.50
2023-01-03T03:30:22.109Z,23.70
2023-01-03T03:31:22.071Z,20.30
2023-01-03T03:32:22.088Z,25.80
2023-01-03T03:33:21.985Z,24.60
2023-01-03T03:34:44.029Z,25.70
2023-01-03T03:35:21.982Z,19.10
2023-01-03T03:36:22.126Z,22.30
2023-01-03T03:37:21.927Z,21.20
2023-01-03T03:38:22.108Z,22.50
2023-01-03T03:39:21.895Z,24.70
2023-01-03T03:40:21.936Z,20.70
2023-01-03T03:41:21.876Z,19.60
2023-01-03T03:42:22.028Z,21.10
2023-01-03T03:43:21.840Z,20.20
2023-01-03T03:44:24.004Z,19.00
2023-01-03T03:45:21.816Z,19.20
2023-01-03T03:46:21.978Z,19.50
2023-01-03T03:47:21.889Z,18.70
2023-01-03T03:48:21.929Z,19.00
2023-01-03T03:49:21.767Z,16.40
2023-01-03T03:50:21.793Z,20.30
2023-01-03T03:51:21.737Z,17.60
2023-01-03T03:52:21.844Z,17.80
2023-01-03T03:53:21.706Z,18.60
2023-01-03T03:54:21.834Z,17.40
2023-01-03T03:55:21.690Z,18.20
2023-01-03T03:56:22.846Z,17.10
2023-01-03T03:57:21.659Z,18.30
2023-01-03T03:58:21.755Z,17.20
2023-01-03T03:59:21.641Z,19.20
2023-01-03T04:00:21.702Z,16.40
2023-01-03T04:01:21.647Z,16.20
2023-01-03T04:02:21.856Z,17.30
2023-01-03T04:03:21.702Z,18.80
2023-01-03T04:04:21.757Z,18.30
2023-01-03T04:05:21.558Z,17.60
2023-01-03T04:06:21.747Z,17.70
2023-01-03T04:07:21.532Z,17.90
2023-01-03T04:08:22.653Z,17.10
2023-01-03T04:09:21.509Z,13.80
2023-01-03T04:10:21.544Z,18.70
2023-01-03T04:11:21.470Z,18.20
2023-01-03T04:12:21.656Z,17.00
2023-01-03T04:13:21.455Z,15.90
2023-01-03T04:14:23.548Z,15.30
2023-01-03T04:15:21.449Z,16.30
2023-01-03T04:16:21.523Z,15.50
2023-01-03T04:17:21.393Z,15.50
2023-01-03T04:18:21.457Z,15.10
2023-01-03T04:19:21.377Z,16.10
2023-01-03T04:21:30.735Z,15.00
2023-01-03T04:22:30.610Z,14.80
2023-01-03T04:23:31.734Z,15.10
2023-01-03T04:24:30.654Z,16.40
2023-01-03T04:25:30.685Z,14.80
2023-01-03T04:26:30.555Z,14.80
2023-01-03T04:27:30.725Z,15.90
2023-01-03T04:28:30.541Z,18.40
2023-01-03T04:29:34.134Z,15.70
2023-01-03T04:30:31.517Z,16.10
2023-01-03T04:31:30.632Z,17.10
2023-01-03T04:32:30.479Z,17.30
2023-01-03T04:33:30.545Z,16.70
2023-01-03T04:34:30.456Z,16.50
2023-01-03T04:35:30.614Z,16.10
2023-01-03T04:36:30.433Z,16.20
2023-01-03T04:37:31.524Z,15.70
2023-01-03T04:38:30.397Z,16.80
2023-01-03T04:39:30.548Z,17.00
2023-01-03T04:40:30.373Z,17.50
2023-01-03T04:41:30.439Z,18.10
2023-01-03T04:42:30.360Z,18.90
2023-01-03T04:43:30.409Z,18.20
2023-01-03T04:44:30.323Z,15.80
2023-01-03T04:45:30.469Z,17.60
2023-01-03T04:46:30.303Z,18.90
2023-01-03T04:47:31.463Z,18.20
2023-01-03T04:48:30.274Z,18.30
2023-01-03T04:49:30.313Z,16.80
2023-01-03T04:50:30.244Z,18.20
2023-01-03T04:51:30.374Z,16.00
2023-01-03T04:52:30.334Z,16.90
2023-01-03T04:53:32.351Z,16.70
2023-01-03T04:54:30.193Z,16.40
2023-01-03T04:55:30.323Z,17.20
2023-01-03T04:56:30.163Z,16.60
2023-01-03T04:57:30.386Z,15.70
2023-01-03T04:58:30.153Z,14.60
2023-01-03T04:59:30.242Z,15.20
2023-01-03T05:00:30.107Z,14.60
2023-01-03T05:01:30.453Z,21.20
2023-01-03T05:02:30.162Z,17.80
2023-01-03T05:03:30.158Z,19.00
2023-01-03T05:04:30.125Z,16.00
2023-01-03T05:05:33.423Z,18.10
2023-01-03T05:06:30.043Z,16.40
2023-01-03T05:07:30.263Z,16.30
2023-01-03T05:08:30.000Z,15.50
2023-01-03T05:09:30.062Z,14.00
2023-01-03T05:10:29.981Z,15.80
2023-01-03T05:11:30.171Z,16.50
2023-01-03T05:12:29.972Z,16.40
2023-01-03T05:13:30.045Z,15.40
2023-01-03T05:14:29.929Z,15.60
2023-01-03T05:15:30.070Z,17.20
2023-01-03T05:16:29.978Z,15.90
2023-01-03T05:17:29.956Z,17.00
2023-01-03T05:18:29.882Z,15.00
2023-01-03T05:19:29.940Z,16.10
2023-01-03T05:20:29.852Z,16.80
2023-01-03T05:21:29.980Z,16.30
2023-01-03T05:22:29.832Z,15.40
2023-01-03T05:23:29.968Z,16.50
2023-01-03T05:24:29.800Z,15.70
2023-01-03T05:25:29.961Z,14.80
2023-01-03T05:26:29.780Z,13.30
2023-01-03T05:27:29.860Z,15.00
2023-01-03T05:28:29.743Z,16.20
2023-01-03T05:29:29.848Z,15.40
2023-01-03T05:30:29.725Z,16.90
2023-01-03T05:31:29.864Z,15.00
2023-01-03T05:32:29.719Z,19.40
2023-01-03T05:33:29.718Z,17.40
2023-01-03T05:34:29.661Z,16.90
2023-01-03T05:35:29.772Z,19.00
2023-01-03T05:36:29.646Z,16.10
2023-01-03T05:37:29.861Z,15.30
2023-01-03T05:38:29.616Z,15.90
2023-01-03T05:39:51.697Z,16.90
2023-01-03T05:40:29.588Z,13.90
2023-01-03T05:41:29.799Z,15.90
2023-01-03T05:42:29.558Z,15.20
2023-01-03T05:43:29.686Z,14.40
2023-01-03T05:44:29.528Z,14.50
2023-01-03T05:45:29.598Z,16.10
2023-01-03T05:46:29.555Z,14.50
2023-01-03T05:47:29.579Z,16.60
2023-01-03T05:48:29.486Z,15.30
2023-01-03T05:49:31.664Z,15.20
2023-01-03T05:50:29.458Z,16.70
2023-01-03T05:51:30.654Z,14.80
2023-01-03T05:52:29.427Z,16.50
2023-01-03T05:53:29.585Z,14.60
2023-01-03T05:54:29.407Z,17.40
2023-01-03T05:55:29.467Z,16.70
2023-01-03T05:56:29.380Z,14.00
2023-01-03T05:57:35.234Z,17.40
2023-01-03T05:58:30.366Z,15.30
2023-01-03T05:59:29.479Z,15.50
2023-01-03T06:00:29.328Z,14.90
2023-01-03T06:01:29.551Z,14.10
2023-01-03T06:02:29.346Z,15.40
2023-01-03T06:03:30.343Z,12.80
2023-01-03T06:04:29.312Z,13.20
2023-01-03T06:05:29.358Z,15.00
2023-01-03T06:06:29.245Z,14.70
2023-01-03T06:07:30.332Z,13.90
2023-01-03T06:08:29.216Z,13.10
2023-01-03T06:09:29.248Z,15.80
2023-01-03T06:10:29.239Z,15.10
2023-01-03T06:11:29.400Z,14.60
2023-01-03T06:12:29.165Z,16.00
2023-01-03T06:13:29.189Z,13.80
2023-01-03T06:14:29.147Z,14.60
2023-01-03T06:15:29.226Z,14.90
2023-01-03T06:16:29.181Z,14.70
2023-01-03T06:17:29.311Z,16.20
2023-01-03T06:18:29.094Z,14.00
2023-01-03T06:19:29.205Z,17.00
2023-01-03T06:20:29.083Z,17.40
2023-01-03T06:21:29.289Z,17.50
2023-01-03T06:22:29.071Z,17.30
2023-01-03T06:23:30.093Z,17.60
2023-01-03T06:24:29.073Z,16.30
2023-01-03T06:25:29.109Z,16.60
2023-01-03T06:26:28.999Z,16.70
2023-01-03T06:27:29.134Z,17.80
2023-01-03T06:28:28.984Z,16.50
2023-01-03T06:29:29.074Z,17.90
2023-01-03T06:30:29.022Z,16.00
2023-01-03T06:31:29.168Z,20.90
2023-01-03T06:32:28.905Z,20.60
2023-01-03T06:33:28.947Z,19.90
2023-01-03T06:34:28.903Z,18.70
2023-01-03T06:35:31.083Z,18.50
2023-01-03T06:36:28.879Z,18.90
2023-01-03T06:37:29.019Z,15.50
2023-01-03T06:38:28.823Z,34.80
2023-01-03T06:39:31.064Z,41.20
2023-01-03T06:40:34.756Z,46.70
2023-01-03T06:41:29.793Z,17.30
2023-01-03T06:42:29.898Z,49.60
2023-01-03T06:43:30.423Z,23.50
2023-01-03T06:44:28.892Z,18.90
2023-01-03T06:45:28.734Z,20.00
2023-01-03T06:46:28.927Z,17.20
2023-01-03T06:47:28.718Z,15.00
2023-01-03T06:48:28.756Z,16.70
2023-01-03T06:49:28.682Z,14.90
2023-01-03T06:50:28.793Z,15.30
2023-01-03T06:51:28.684Z,15.80
2023-01-03T06:52:30.830Z,12.60
2023-01-03T06:53:28.636Z,16.00
2023-01-03T06:54:28.663Z,14.40
2023-01-03T06:55:28.623Z,19.10
2023-01-03T06:56:28.704Z,15.30
2023-01-03T06:57:28.586Z,16.40
2023-01-03T06:58:29.709Z,12.80
2023-01-03T06:59:28.553Z,13.00
2023-01-03T07:00:28.668Z,16.20
2023-01-03T07:01:28.625Z,20.90
2023-01-03T07:02:28.886Z,14.80
2023-01-03T07:03:28.536Z,15.00
2023-01-03T07:04:28.619Z,14.50
2023-01-03T07:05:28.481Z,13.00
2023-01-03T07:06:28.602Z,14.40
2023-01-03T07:07:28.455Z,12.40
2023-01-03T07:08:28.508Z,16.10
2023-01-03T07:09:28.434Z,20.70
2023-01-03T07:10:28.506Z,17.10
2023-01-03T07:11:28.401Z,34.30
2023-01-03T07:12:28.589Z,13.20
2023-01-03T07:13:28.369Z,14.20
2023-01-03T07:14:28.682Z,12.90
2023-01-03T07:15:28.344Z,46.10
2023-01-03T07:16:28.592Z,51.60
2023-01-03T07:17:28.337Z,29.50
2023-01-03T07:18:28.490Z,16.20
2023-01-03T07:19:28.333Z,28.20
2023-01-03T07:20:28.523Z,24.70
2023-01-03T07:21:28.300Z,22.40
2023-01-03T07:22:28.437Z,24.40
2023-01-03T07:23:28.267Z,17.00
2023-01-03T07:24:28.305Z,22.40
2023-01-03T07:25:28.209Z,40.70
2023-01-03T07:26:29.358Z,92.80
2023-01-03T07:27:28.185Z,45.90
2023-01-03T07:28:28.254Z,83.30
2023-01-03T07:29:28.147Z,139.80
2023-01-03T07:30:28.351Z,101.10
2023-01-03T07:31:28.317Z,77.90
2023-01-03T07:32:28.232Z,80.10
2023-01-03T07:33:28.138Z,89.20
2023-01-03T07:34:28.220Z,59.00
2023-01-03T07:35:28.081Z,84.00
2023-01-03T07:36:28.218Z,41.20
2023-01-03T07:37:28.055Z,49.40
2023-01-03T07:38:28.246Z,54.70
2023-01-03T07:39:28.032Z,23.70
2023-01-03T07:40:28.181Z,23.50
2023-01-03T07:41:28.007Z,23.70
2023-01-03T07:42:28.119Z,31.10
2023-01-03T07:43:27.976Z,23.60
2023-01-03T07:44:27.998Z,20.70
2023-01-03T07:45:27.946Z,24.00
2023-01-03T07:46:28.217Z,24.30
2023-01-03T07:47:27.930Z,21.10
2023-01-03T07:48:28.116Z,20.10
2023-01-03T07:49:27.894Z,19.90
2023-01-03T07:50:28.976Z,19.10
2023-01-03T07:51:27.883Z,18.30
2023-01-03T07:52:29.995Z,17.60
2023-01-03T07:53:27.891Z,20.20
2023-01-03T07:54:27.918Z,16.70
2023-01-03T07:55:27.819Z,17.10
2023-01-03T07:56:27.955Z,15.20
2023-01-03T07:57:27.794Z,18.10
2023-01-03T07:58:27.847Z,18.80
2023-01-03T07:59:27.767Z,18.40
2023-01-03T08:00:27.845Z,18.30
2023-01-03T08:01:27.946Z,17.90
2023-01-03T08:02:28.010Z,16.40
2023-01-03T08:03:27.718Z,16.70
2023-01-03T08:04:27.859Z,24.00
2023-01-03T08:05:27.685Z,18.50
2023-01-03T08:06:27.842Z,19.20
2023-01-03T08:07:27.677Z,21.80
2023-01-03T08:08:48.854Z,18.40
2023-01-03T08:09:27.636Z,15.80
2023-01-03T08:10:27.754Z,16.70
2023-01-03T08:11:27.617Z,17.60
2023-01-03T08:12:27.751Z,16.30
2023-01-03T08:13:27.590Z,18.50
2023-01-03T08:14:27.815Z,16.50
2023-01-03T08:15:27.567Z,19.80
2023-01-03T08:16:27.854Z,16.70
2023-01-03T08:17:27.533Z,19.10
2023-01-03T08:18:27.669Z,23.60
2023-01-03T08:19:27.509Z,16.70
2023-01-03T08:20:27.593Z,17.50
2023-01-03T08:21:27.483Z,20.50
2023-01-03T08:22:27.673Z,18.50
2023-01-03T08:23:27.465Z,18.30
2023-01-03T08:24:27.550Z,19.50
2023-01-03T08:25:27.440Z,17.50
2023-01-03T08:26:48.579Z,18.40
2023-01-03T08:27:27.411Z,18.90
2023-01-03T08:28:27.474Z,17.80
2023-01-03T08:29:27.374Z,16.60
2023-01-03T08:30:27.453Z,15.10
2023-01-03T08:31:27.385Z,19.30
2023-01-03T08:32:27.494Z,18.20
2023-01-03T08:33:27.324Z,16.40
2023-01-03T08:34:30.055Z,18.10
2023-01-03T08:35:27.295Z,17.90
2023-01-03T08:36:27.363Z,18.30
2023-01-03T08:37:27.265Z,18.50
2023-01-03T08:38:27.413Z,19.50
2023-01-03T08:39:27.243Z,17.10
2023-01-03T08:40:28.411Z,18.00
2023-01-03T08:41:27.224Z,19.80
2023-01-03T08:42:27.370Z,20.10
2023-01-03T08:43:27.182Z,18.30
2023-01-03T08:44:27.299Z,19.80
2023-01-03T08:45:27.172Z,16.10
2023-01-03T08:46:27.366Z,16.20
2023-01-03T08:47:27.132Z,17.20
2023-01-03T08:48:28.208Z,18.30
2023-01-03T08:49:27.127Z,18.10
2023-01-03T08:50:27.202Z,18.00
2023-01-03T08:51:27.081Z,15.70
2023-01-03T08:52:33.059Z,16.60
2023-01-03T08:53:28.073Z,16.40
2023-01-03T08:54:27.079Z,16.70
2023-01-03T08:55:27.045Z,18.50
2023-01-03T08:56:27.129Z,16.30
2023-01-03T08:57:27.031Z,17.60
2023-01-03T08:58:31.298Z,17.50
2023-01-03T08:59:26.969Z,16.80
2023-01-03T09:00:27.111Z,22.00
2023-01-03T09:01:27.060Z,17.40
2023-01-03T09:02:27.401Z,17.30
2023-01-03T09:03:27.027Z,17.30
2023-01-03T09:04:28.029Z,17.40
2023-01-03T09:05:26.906Z,17.30
2023-01-03T09:07:36.481Z,16.60
2023-01-03T09:08:36.266Z,17.00
2023-01-03T09:09:36.368Z,17.20
2023-01-03T09:10:37.797Z,15.30
2023-01-03T09:11:36.343Z,17.90
2023-01-03T09:12:36.204Z,19.90
2023-01-03T09:13:36.277Z,16.80
2023-01-03T09:14:36.195Z,21.00
2023-01-03T09:15:36.363Z,17.50
2023-01-03T09:16:36.218Z,17.90
2023-01-03T09:17:36.345Z,17.90
2023-01-03T09:18:36.148Z,17.40
2023-01-03T09:19:36.183Z,16.90
2023-01-03T09:20:36.104Z,16.80
2023-01-03T09:21:36.154Z,16.50
2023-01-03T09:22:36.078Z,17.30
2023-01-03T09:23:38.766Z,18.20
2023-01-03T09:24:36.081Z,15.90
2023-01-03T09:25:37.448Z,15.10
2023-01-03T09:26:36.023Z,19.60
2023-01-03T09:27:36.074Z,18.20
2023-01-03T09:28:36.012Z,18.80
2023-01-03T09:29:38.273Z,17.00
2023-01-03T09:30:35.973Z,19.40
2023-01-03T09:31:36.117Z,17.50
2023-01-03T09:32:35.953Z,17.00
2023-01-03T09:33:36.085Z,19.60
2023-01-03T09:34:36.575Z,17.50
2023-01-03T09:35:37.096Z,18.30
2023-01-03T09:36:35.895Z,15.90
2023-01-03T09:37:36.003Z,17.40
2023-01-03T09:38:35.863Z,16.90
2023-01-03T09:39:36.003Z,18.80
2023-01-03T09:40:35.855Z,20.10
2023-01-03T09:41:35.984Z,17.50
2023-01-03T09:42:35.812Z,17.50
2023-01-03T09:43:35.903Z,16.80
2023-01-03T09:44:35.799Z,17.30
2023-01-03T09:45:35.995Z,18.60
2023-01-03T09:46:35.778Z,17.80
2023-01-03T09:47:35.873Z,17.70
2023-01-03T09:48:35.744Z,17.70
2023-01-03T09:49:36.830Z,16.50
2023-01-03T09:51:05.271Z,19.40
2023-01-03T09:51:36.710Z,17.90
2023-01-03T09:52:56.810Z,18.00
2023-01-03T09:53:35.670Z,18.10
2023-01-03T09:54:35.754Z,19.40
2023-01-03T09:55:35.640Z,20.80
2023-01-03T09:56:35.778Z,20.30
2023-01-03T09:57:35.635Z,21.90
2023-01-03T09:58:36.752Z,20.20
2023-01-03T09:59:35.627Z,20.90
2023-01-03T10:00:35.718Z,20.80
2023-01-03T10:01:35.983Z,21.80
2023-01-03T10:02:35.882Z,21.90
2023-01-03T10:03:35.703Z,21.20
2023-01-03T10:04:35.636Z,22.60
2023-01-03T10:05:35.526Z,24.60
2023-01-03T10:06:37.649Z,25.50
2023-01-03T10:07:35.483Z,24.20
2023-01-03T10:08:35.678Z,22.80
2023-01-03T10:09:35.493Z,22.60
2023-01-03T10:10:36.572Z,23.70
2023-01-03T10:11:35.423Z,21.70
2023-01-03T10:12:56.575Z,23.30
2023-01-03T10:13:35.410Z,25.30
2023-01-03T10:14:35.498Z,23.50
2023-01-03T10:15:35.385Z,24.90
2023-01-03T10:16:35.592Z,23.10
2023-01-03T10:17:35.357Z,24.00
2023-01-03T10:19:44.873Z,30.30
2023-01-03T10:20:44.665Z,29.90
2023-01-03T10:21:44.796Z,24.80
2023-01-03T10:22:44.614Z,25.40
2023-01-03T10:23:45.753Z,26.10
2023-01-03T10:24:44.593Z,29.50
2023-01-03T10:25:44.661Z,23.50
2023-01-03T10:26:44.589Z,21.90
2023-01-03T10:27:44.695Z,24.10
2023-01-03T10:28:44.579Z,24.70
2023-01-03T10:29:44.628Z,23.80
2023-01-03T10:30:44.520Z,21.70
2023-01-03T10:31:44.625Z,26.00
2023-01-03T10:32:44.514Z,20.00
2023-01-03T10:33:44.582Z,23.90
2023-01-03T10:34:44.460Z,25.10
2023-01-03T10:35:44.498Z,22.00
2023-01-03T10:36:47.600Z,21.20
2023-01-03T10:37:44.419Z,18.90
2023-01-03T10:38:51.561Z,18.80
2023-01-03T10:39:45.399Z,17.80
2023-01-03T10:40:44.486Z,19.20
2023-01-03T10:41:44.386Z,16.40
2023-01-03T10:42:44.499Z,16.10
2023-01-03T10:43:44.358Z,17.20
2023-01-03T10:44:44.489Z,18.30
2023-01-03T10:45:49.544Z,16.70
2023-01-03T10:46:45.350Z,15.80
2023-01-03T10:47:44.454Z,18.70
2023-01-03T10:49:25.374Z,16.90
2023-01-03T10:49:45.302Z,15.80
2023-01-03T10:50:44.241Z,17.60
2023-01-03T10:52:05.399Z,18.20
2023-01-03T10:52:44.229Z,18.20
2023-01-03T10:53:44.223Z,20.20
2023-01-03T10:54:44.418Z,18.90
2023-01-03T10:55:44.205Z,19.10
2023-01-03T10:56:46.362Z,20.10
2023-01-03T10:57:44.339Z,17.50
2023-01-03T10:58:44.303Z,16.40
2023-01-03T10:59:44.138Z,18.80
2023-01-03T11:00:44.205Z,17.30
2023-01-03T11:01:44.301Z,16.60
2023-01-03T11:02:44.349Z,18.40
2023-01-03T11:03:49.506Z,17.70
2023-01-03T11:04:45.091Z,18.00
2023-01-03T11:05:44.159Z,19.20
2023-01-03T11:06:44.049Z,21.10
2023-01-03T11:07:44.249Z,16.20
2023-01-03T11:08:44.031Z,15.70
2023-01-03T11:09:50.382Z,16.40
2023-01-03T11:10:45.818Z,18.60
2023-01-03T11:11:44.068Z,17.40
2023-01-03T11:12:43.963Z,20.70
2023-01-03T11:13:44.057Z,17.40
2023-01-03T11:14:43.936Z,17.90
2023-01-03T11:15:44.037Z,18.40
2023-01-03T11:16:44.024Z,17.40
2023-01-03T11:17:44.089Z,21.10
2023-01-03T11:18:43.878Z,17.80
2023-01-03T11:19:47.237Z,20.50
2023-01-03T11:20:43.865Z,17.70
2023-01-03T11:21:43.949Z,16.90
2023-01-03T11:22:43.828Z,16.90
2023-01-03T11:23:43.993Z,16.60
2023-01-03T11:24:43.810Z,19.60
2023-01-03T11:25:43.959Z,17.30
2023-01-03T11:26:43.841Z,18.60
2023-01-03T11:27:43.951Z,18.50
2023-01-03T11:28:43.738Z,15.80
2023-01-03T11:29:43.777Z,18.00
2023-01-03T11:30:43.725Z,19.50
2023-01-03T11:31:48.105Z,16.30
2023-01-03T11:32:43.698Z,16.60
2023-01-03T11:33:43.854Z,17.40
2023-01-03T11:35:20.939Z,16.20
2023-01-03T11:35:44.717Z,17.50
2023-01-03T11:36:43.758Z,16.30
2023-01-03T11:37:43.662Z,21.90
2023-01-03T11:38:44.720Z,27.00
2023-01-03T11:39:43.597Z,22.00
2023-01-03T11:40:43.740Z,18.90
2023-01-03T11:41:43.581Z,17.80
2023-01-03T11:42:43.795Z,18.20
2023-01-03T11:43:43.566Z,15.60
2023-01-03T11:44:43.596Z,21.10
2023-01-03T11:45:48.833Z,18.50
2023-01-03T11:46:44.580Z,16.30
2023-01-03T11:47:43.596Z,15.30
2023-01-03T11:48:43.485Z,16.10
2023-01-03T11:49:43.587Z,16.40
2023-01-03T11:50:43.485Z,17.90
2023-01-03T11:51:43.583Z,17.60
2023-01-03T11:52:43.436Z,15.00
2023-01-03T11:53:43.606Z,15.50
2023-01-03T11:54:46.589Z,14.20
2023-01-03T11:55:44.417Z,14.10
2023-01-03T11:56:43.509Z,14.60
2023-01-03T11:57:43.397Z,14.40
2023-01-03T11:58:43.552Z,15.00
2023-01-03T11:59:43.327Z,14.60
2023-01-03T12:00:43.368Z,15.40
2023-01-03T12:01:43.364Z,15.90
2023-01-03T12:02:43.445Z,14.80
2023-01-03T12:03:43.370Z,13.40
2023-01-03T12:04:43.347Z,13.10
2023-01-03T12:05:43.254Z,15.40
2023-01-03T12:06:44.415Z,13.20
2023-01-03T12:07:48.299Z,13.60
2023-01-03T12:08:44.218Z,14.60
2023-01-03T12:09:44.319Z,14.10
2023-01-03T12:10:43.199Z,15.80
2023-01-03T12:11:43.343Z,17.00
2023-01-03T12:12:43.167Z,17.00
2023-01-03T12:13:43.342Z,17.30
2023-01-03T12:14:43.151Z,15.40
2023-01-03T12:15:43.278Z,17.20
2023-01-03T12:16:43.117Z,14.70
2023-01-03T12:17:43.227Z,16.60
2023-01-03T12:18:43.100Z,13.10
2023-01-03T12:19:43.229Z,12.90
2023-01-03T12:20:43.076Z,13.30
2023-01-03T12:21:43.207Z,12.10
2023-01-03T12:22:43.045Z,17.10
2023-01-03T12:23:43.245Z,14.80
2023-01-03T12:24:43.017Z,14.60
2023-01-03T12:25:43.139Z,14.20
2023-01-03T12:26:43.008Z,14.80
2023-01-03T12:27:43.065Z,13.20
2023-01-03T12:28:42.969Z,13.50
2023-01-03T12:29:43.145Z,12.90
2023-01-03T12:30:42.996Z,13.60
2023-01-03T12:31:43.251Z,13.40
2023-01-03T12:32:42.916Z,13.80
2023-01-03T12:33:43.012Z,14.40
2023-01-03T12:34:42.912Z,15.40
2023-01-03T12:35:45.036Z,12.80
2023-01-03T12:36:42.887Z,12.50
2023-01-03T12:37:43.037Z,17.00
2023-01-03T12:38:42.867Z,12.40
2023-01-03T12:39:42.916Z,13.30
2023-01-03T12:40:42.805Z,11.40
2023-01-03T12:41:44.056Z,16.10
2023-01-03T12:42:42.786Z,13.10
2023-01-03T12:43:42.959Z,12.10
2023-01-03T12:44:42.756Z,13.50
2023-01-03T12:46:10.280Z,14.50
2023-01-03T12:46:43.773Z,13.70
2023-01-03T12:47:43.886Z,13.30
2023-01-03T12:48:42.709Z,14.00
2023-01-03T12:49:42.851Z,14.20
2023-01-03T12:50:42.687Z,18.80
2023-01-03T12:51:42.840Z,17.40
2023-01-03T12:52:42.656Z,18.90
2023-01-03T12:53:43.686Z,18.90
2023-01-03T12:54:42.630Z,14.80
2023-01-03T12:55:42.746Z,28.40